createdAt,value
2019-03-01T00:01:19.122Z,10.66
2019-03-01T00:04:52.389Z,10.66
2019-03-01T00:08:09.882Z,10.73
2019-03-01T00:11:39.545Z,10.63
2019-03-01T00:15:19.439Z,10.72
2019-03-01T00:19:00.799Z,10.73
2019-03-01T00:22:47.406Z,10.58
2019-03-01T00:26:33.421Z,10.47
2019-03-01T00:30:10.661Z,10.52
2019-03-01T00:33:22.342Z,10.58
2019-03-01T00:36:51.327Z,10.35
2019-03-01T00:40:26.121Z,10.37
2019-03-01T00:44:08.010Z,10.40
2019-03-01T00:47:14.394Z,10.49
2019-03-01T00:50:19.536Z,10.30
2019-03-01T00:53:24.628Z,10.30
2019-03-01T00:56:29.958Z,10.30
2019-03-01T00:59:35.132Z,10.02
2019-03-01T01:02:40.312Z,10.07
2019-03-01T01:05:45.958Z,10.13
2019-03-01T01:08:51.118Z,9.99
2019-03-01T01:11:56.269Z,10.00
2019-03-01T01:15:01.460Z,9.92
2019-03-01T01:18:06.686Z,9.80
2019-03-01T01:21:11.895Z,9.84
2019-03-01T01:24:17.043Z,9.59
2019-03-01T01:27:22.148Z,9.46
2019-03-01T01:30:27.317Z,9.39
2019-03-01T01:33:32.461Z,9.29
2019-03-01T01:36:37.649Z,9.38
2019-03-01T01:39:42.784Z,9.17
2019-03-01T01:42:48.009Z,9.11
2019-03-01T01:45:53.146Z,9.05
2019-03-01T01:48:58.344Z,9.07
2019-03-01T01:52:03.514Z,9.13
2019-03-01T01:55:09.766Z,9.11
2019-03-01T01:58:14.858Z,9.00
2019-03-01T02:01:20.049Z,8.88
2019-03-01T02:04:25.186Z,8.95
2019-03-01T02:07:30.439Z,8.97
2019-03-01T02:10:35.554Z,9.02
2019-03-01T02:13:40.686Z,8.97
2019-03-01T02:16:45.846Z,9.05
2019-03-01T02:19:50.982Z,8.99
2019-03-01T02:22:56.118Z,9.04
2019-03-01T02:26:01.350Z,8.99
2019-03-01T02:29:06.532Z,9.16
2019-03-01T02:32:11.654Z,9.00
2019-03-01T02:35:18.902Z,8.99
2019-03-01T02:38:24.028Z,8.96
2019-03-01T02:41:29.128Z,8.73
2019-03-01T02:44:34.311Z,8.57
2019-03-01T02:47:39.437Z,8.53
2019-03-01T02:50:44.624Z,8.77
2019-03-01T02:53:49.826Z,8.78
2019-03-01T02:56:54.956Z,8.65
2019-03-01T03:00:00.258Z,8.35
2019-03-01T03:03:07.441Z,8.29
2019-03-01T03:06:36.158Z,8.53
2019-03-01T03:09:41.276Z,8.38
2019-03-01T03:12:46.734Z,8.39
2019-03-01T03:15:53.153Z,8.52
2019-03-01T03:18:58.305Z,8.54
2019-03-01T03:22:03.425Z,8.54
2019-03-01T03:25:08.763Z,8.56
2019-03-01T03:28:13.874Z,8.61
2019-03-01T03:31:18.990Z,8.51
2019-03-01T03:34:24.102Z,8.66
2019-03-01T03:37:29.224Z,8.62
2019-03-01T03:40:34.306Z,8.69
2019-03-01T03:43:39.510Z,8.70
2019-03-01T03:46:44.586Z,8.77
2019-03-01T03:49:49.802Z,8.90
2019-03-01T03:52:54.875Z,8.83
2019-03-01T03:55:59.996Z,8.88
2019-03-01T03:59:05.243Z,8.89
2019-03-01T04:02:10.541Z,8.92
2019-03-01T04:05:15.785Z,8.84
2019-03-01T04:08:21.016Z,8.80
2019-03-01T04:11:26.152Z,8.84
2019-03-01T04:14:31.276Z,8.92
2019-03-01T04:17:36.379Z,8.82
2019-03-01T04:20:41.562Z,8.73
2019-03-01T04:23:46.707Z,8.84
2019-03-01T04:26:51.807Z,8.82
2019-03-01T04:29:56.897Z,8.80
2019-03-01T04:33:02.110Z,8.81
2019-03-01T04:36:07.208Z,8.66
2019-03-01T04:39:12.367Z,8.59
2019-03-01T04:42:17.499Z,8.60
2019-03-01T04:45:22.571Z,8.68
2019-03-01T04:48:27.659Z,8.68
2019-03-01T04:51:39.829Z,8.62
2019-03-01T04:54:39.569Z,8.58
2019-03-01T04:57:44.681Z,8.76
2019-03-01T05:00:49.815Z,8.59
2019-03-01T05:03:54.971Z,8.62
2019-03-01T05:07:00.179Z,8.70
2019-03-01T05:10:05.940Z,8.71
2019-03-01T05:13:11.051Z,8.53
2019-03-01T05:16:16.128Z,8.38
2019-03-01T05:19:21.270Z,8.36
2019-03-01T05:22:26.361Z,8.30
2019-03-01T05:25:31.581Z,8.28
2019-03-01T05:28:36.713Z,8.19
2019-03-01T05:31:41.951Z,8.16
2019-03-01T05:34:47.083Z,8.25
2019-03-01T05:37:52.310Z,8.05
2019-03-01T05:40:57.493Z,8.00
2019-03-01T05:44:02.719Z,8.06
2019-03-01T05:47:07.831Z,8.00
2019-03-01T05:50:13.548Z,7.96
2019-03-01T05:53:18.631Z,7.81
2019-03-01T05:56:23.753Z,7.65
2019-03-01T05:59:29.913Z,7.52
2019-03-01T06:03:01.624Z,7.40
2019-03-01T06:06:06.815Z,7.42
2019-03-01T06:09:45.563Z,7.56
2019-03-01T06:13:28.710Z,7.63
2019-03-01T06:16:51.522Z,7.66
2019-03-01T06:20:21.311Z,7.60
2019-03-01T06:23:43.547Z,7.69
2019-03-01T06:27:22.683Z,7.69
2019-03-01T06:30:52.406Z,7.70
2019-03-01T06:34:34.460Z,7.85
2019-03-01T06:38:09.697Z,7.86
2019-03-01T06:41:45.994Z,7.93
2019-03-01T06:45:16.237Z,8.04
2019-03-01T06:48:33.897Z,7.97
2019-03-01T06:51:39.070Z,7.98
2019-03-01T06:54:45.300Z,7.95
2019-03-01T06:57:50.439Z,8.09
2019-03-01T07:00:59.645Z,8.12
2019-03-01T07:04:11.145Z,8.43
2019-03-01T07:07:16.319Z,8.41
2019-03-01T07:10:21.536Z,8.56
2019-03-01T07:13:26.734Z,8.69
2019-03-01T07:16:31.863Z,8.91
2019-03-01T07:19:36.973Z,9.09
2019-03-01T07:22:42.214Z,9.31
2019-03-01T07:25:47.522Z,9.51
2019-03-01T07:28:52.670Z,9.46
2019-03-01T07:31:57.771Z,9.32
2019-03-01T07:35:03.032Z,9.66
2019-03-01T07:38:08.208Z,9.22
2019-03-01T07:41:13.422Z,9.19
2019-03-01T07:44:21.654Z,9.10
2019-03-01T07:47:26.860Z,9.01
2019-03-01T07:50:31.962Z,9.28
2019-03-01T07:53:41.776Z,8.89
2019-03-01T07:56:43.888Z,8.82
2019-03-01T07:59:49.055Z,8.83
2019-03-01T08:02:54.206Z,8.83
2019-03-01T08:05:59.384Z,8.98
2019-03-01T08:09:06.520Z,9.22
2019-03-01T08:12:13.313Z,9.01
2019-03-01T08:15:18.444Z,9.23
2019-03-01T08:18:23.656Z,9.44
2019-03-01T08:21:28.802Z,9.44
2019-03-01T08:24:33.882Z,9.80
2019-03-01T08:27:42.087Z,9.64
2019-03-01T08:30:46.893Z,9.76
2019-03-01T08:33:52.105Z,9.66
2019-03-01T08:36:57.258Z,9.63
2019-03-01T08:40:02.458Z,9.24
2019-03-01T08:43:11.742Z,9.09
2019-03-01T08:46:14.620Z,9.26
2019-03-01T08:49:19.768Z,9.16
2019-03-01T08:52:24.870Z,9.38
2019-03-01T08:55:29.934Z,9.64
2019-03-01T08:58:37.649Z,9.54
2019-03-01T09:01:44.995Z,9.50
2019-03-01T09:04:51.242Z,9.73
2019-03-01T09:07:55.647Z,9.89
2019-03-01T09:11:00.790Z,9.97
2019-03-01T09:14:05.977Z,9.90
2019-03-01T09:17:11.138Z,9.97
2019-03-01T09:20:16.705Z,10.55
2019-03-01T09:23:26.467Z,10.65
2019-03-01T09:26:28.662Z,10.31
2019-03-01T09:29:41.481Z,10.51
2019-03-01T09:32:41.655Z,10.32
2019-03-01T09:36:00.459Z,9.98
2019-03-01T09:39:09.001Z,9.94
2019-03-01T09:42:16.237Z,10.00
2019-03-01T09:45:21.603Z,10.61
2019-03-01T09:48:26.814Z,10.02
2019-03-01T09:51:32.968Z,9.92
2019-03-01T09:54:38.796Z,9.86
2019-03-01T09:57:44.095Z,9.76
2019-03-01T10:00:56.391Z,9.74
2019-03-01T10:04:00.264Z,9.87
2019-03-01T10:07:05.426Z,9.78
2019-03-01T10:10:12.361Z,9.94
2019-03-01T10:13:17.473Z,9.90
2019-03-01T10:16:22.624Z,10.16
2019-03-01T10:19:27.830Z,10.21
2019-03-01T10:22:32.988Z,10.18
2019-03-01T10:25:38.071Z,10.47
2019-03-01T10:28:43.216Z,10.40
2019-03-01T10:31:48.401Z,10.43
2019-03-01T10:34:53.635Z,10.73
2019-03-01T10:37:58.762Z,11.06
2019-03-01T10:41:04.632Z,11.34
2019-03-01T10:44:09.947Z,11.29
2019-03-01T10:47:15.043Z,11.24
2019-03-01T10:50:20.241Z,10.99
2019-03-01T10:53:25.366Z,11.04
2019-03-01T10:56:30.453Z,11.10
2019-03-01T10:59:35.590Z,11.03
2019-03-01T11:02:40.754Z,10.63
2019-03-01T11:05:46.350Z,10.99
2019-03-01T11:08:51.456Z,11.11
2019-03-01T11:11:56.703Z,11.05
2019-03-01T11:15:01.899Z,11.09
2019-03-01T11:18:15.973Z,10.97
2019-03-01T11:21:24.284Z,11.15
2019-03-01T11:24:29.408Z,11.49
2019-03-01T11:27:34.589Z,11.34
2019-03-01T11:30:39.716Z,11.26
2019-03-01T11:33:44.995Z,11.12
2019-03-01T11:36:50.214Z,11.71
2019-03-01T11:39:57.772Z,11.83
2019-03-01T11:43:02.997Z,11.70
2019-03-01T11:46:08.129Z,11.33
2019-03-01T11:49:13.325Z,11.71
2019-03-01T11:52:18.412Z,11.25
2019-03-01T11:55:23.561Z,11.44
2019-03-01T11:58:28.766Z,11.50
2019-03-01T12:01:33.904Z,11.30
2019-03-01T12:04:39.047Z,10.95
2019-03-01T12:07:44.163Z,10.91
2019-03-01T12:10:49.318Z,11.30
2019-03-01T12:13:54.419Z,11.31
2019-03-01T12:16:59.543Z,11.73
2019-03-01T12:20:05.553Z,11.80
2019-03-01T12:23:10.955Z,12.62
2019-03-01T12:26:16.142Z,13.27
2019-03-01T12:29:21.322Z,13.14
2019-03-01T12:32:26.433Z,12.93
2019-03-01T12:35:31.538Z,11.94
2019-03-01T12:38:36.698Z,11.23
2019-03-01T12:41:41.863Z,10.96
2019-03-01T12:44:47.992Z,10.75
2019-03-01T12:47:53.159Z,10.57
2019-03-01T12:50:58.329Z,10.73
2019-03-01T12:54:03.577Z,11.11
2019-03-01T12:57:08.726Z,11.45
2019-03-01T13:00:16.275Z,11.38
2019-03-01T13:03:21.409Z,11.41
2019-03-01T13:06:26.683Z,11.20
2019-03-01T13:09:31.973Z,11.33
2019-03-01T13:12:37.143Z,11.23
2019-03-01T13:15:45.474Z,11.17
2019-03-01T13:18:51.290Z,11.78
2019-03-01T13:21:55.983Z,12.04
2019-03-01T13:25:01.265Z,11.80
2019-03-01T13:28:06.513Z,12.14
2019-03-01T13:31:12.275Z,12.40
2019-03-01T13:34:17.675Z,12.41
2019-03-01T13:37:22.817Z,12.33
2019-03-01T13:40:27.932Z,12.43
2019-03-01T13:43:33.327Z,12.21
2019-03-01T13:46:38.544Z,12.37
2019-03-01T13:49:43.711Z,12.04
2019-03-01T13:52:50.214Z,12.31
2019-03-01T13:55:56.384Z,12.16
2019-03-01T13:59:02.935Z,12.34
2019-03-01T14:02:09.152Z,11.87
2019-03-01T14:05:17.124Z,11.74
2019-03-01T14:08:21.890Z,11.84
2019-03-01T14:11:27.046Z,12.28
2019-03-01T14:14:32.204Z,12.64
2019-03-01T14:17:37.335Z,12.02
2019-03-01T14:20:42.480Z,11.80
2019-03-01T14:23:47.577Z,11.95
2019-03-01T14:26:54.030Z,11.69
2019-03-01T14:29:59.523Z,11.71
2019-03-01T14:33:04.698Z,11.53
2019-03-01T14:36:09.775Z,11.55
2019-03-01T14:39:18.173Z,11.39
2019-03-01T14:42:23.328Z,11.26
2019-03-01T14:45:28.502Z,11.11
2019-03-01T14:48:33.697Z,10.96
2019-03-01T14:51:38.847Z,11.69
2019-03-01T14:54:45.140Z,11.63
2019-03-01T14:58:03.913Z,11.94
2019-03-01T15:01:27.722Z,11.83
2019-03-01T15:04:34.000Z,11.75
2019-03-01T15:07:39.126Z,11.79
2019-03-01T15:10:44.341Z,11.53
2019-03-01T15:13:50.612Z,11.41
2019-03-01T15:16:55.767Z,11.16
2019-03-01T15:20:01.809Z,11.28
2019-03-01T15:23:08.211Z,11.34
2019-03-01T15:26:13.491Z,11.29
2019-03-01T15:29:18.620Z,11.09
2019-03-01T15:32:23.899Z,10.77
2019-03-01T15:35:29.276Z,10.73
2019-03-01T15:38:34.490Z,10.61
2019-03-01T15:41:42.168Z,10.61
2019-03-01T15:44:46.463Z,10.70
2019-03-01T15:47:51.647Z,10.82
2019-03-01T15:50:58.967Z,10.99
2019-03-01T15:54:03.596Z,10.80
2019-03-01T15:57:08.748Z,10.62
2019-03-01T16:00:15.062Z,10.55
2019-03-01T16:03:20.278Z,10.52
2019-03-01T16:06:25.468Z,10.57
2019-03-01T16:09:30.692Z,10.42
2019-03-01T16:12:36.269Z,10.29
2019-03-01T16:15:41.552Z,10.37
2019-03-01T16:18:46.777Z,10.57
2019-03-01T16:21:51.964Z,10.43
2019-03-01T16:24:57.196Z,10.51
2019-03-01T16:28:02.387Z,10.32
2019-03-01T16:31:07.714Z,10.10
2019-03-01T16:34:12.935Z,9.99
2019-03-01T16:37:18.211Z,9.90
2019-03-01T16:40:23.609Z,9.96
2019-03-01T16:43:29.646Z,9.77
2019-03-01T16:46:34.870Z,9.74
2019-03-01T16:49:40.110Z,9.83
2019-03-01T16:52:45.258Z,9.65
2019-03-01T16:55:50.480Z,9.84
2019-03-01T16:58:55.669Z,9.67
2019-03-01T17:02:06.131Z,9.46
2019-03-01T17:05:08.603Z,9.32
2019-03-01T17:08:13.790Z,9.34
2019-03-01T17:11:18.924Z,9.50
2019-03-01T17:14:24.143Z,9.41
2019-03-01T17:17:29.355Z,9.30
2019-03-01T17:20:38.338Z,9.21
2019-03-01T17:23:43.735Z,9.22
2019-03-01T17:26:49.093Z,9.21
2019-03-01T17:29:54.202Z,9.20
2019-03-01T17:32:59.495Z,9.15
2019-03-01T17:36:04.580Z,9.14
2019-03-01T17:39:09.807Z,9.25
2019-03-01T17:42:17.497Z,9.16
2019-03-01T17:45:23.048Z,9.03
2019-03-01T17:48:29.591Z,9.15
2019-03-01T17:51:34.785Z,9.15
2019-03-01T17:54:39.955Z,8.89
2019-03-01T17:57:45.115Z,8.95
2019-03-01T18:00:50.272Z,9.07
2019-03-01T18:03:57.986Z,9.23
2019-03-01T18:07:02.321Z,9.06
2019-03-01T18:10:08.746Z,8.95
2019-03-01T18:13:15.059Z,8.94
2019-03-01T18:16:22.090Z,8.91
2019-03-01T18:19:28.327Z,8.81
2019-03-01T18:22:33.495Z,8.81
2019-03-01T18:25:38.629Z,8.91
2019-03-01T18:28:43.858Z,8.86
2019-03-01T18:31:50.259Z,8.75
2019-03-01T18:34:55.544Z,8.68
2019-03-01T18:38:00.784Z,8.50
2019-03-01T18:41:05.954Z,8.43
2019-03-01T18:44:13.224Z,8.41
2019-03-01T18:47:18.173Z,8.45
2019-03-01T18:50:27.664Z,8.47
2019-03-01T18:53:32.569Z,8.47
2019-03-01T18:56:37.750Z,8.54
2019-03-01T18:59:42.957Z,8.53
2019-03-01T19:02:48.139Z,8.53
2019-03-01T19:05:53.409Z,8.58
2019-03-01T19:08:58.530Z,8.64
2019-03-01T19:12:03.878Z,8.49
2019-03-01T19:15:12.159Z,8.59
2019-03-01T19:18:17.708Z,8.77
2019-03-01T19:21:22.977Z,8.57
2019-03-01T19:24:28.103Z,8.49
2019-03-01T19:27:33.317Z,8.55
2019-03-01T19:30:38.446Z,8.67
2019-03-01T19:33:43.712Z,8.50
2019-03-01T19:36:48.885Z,8.52
2019-03-01T19:39:54.089Z,8.44
2019-03-01T19:42:59.440Z,8.63
2019-03-01T19:46:04.563Z,8.44
2019-03-01T19:49:12.810Z,8.41
2019-03-01T19:52:16.613Z,8.36
2019-03-01T19:55:21.883Z,8.31
2019-03-01T19:58:27.487Z,8.56
2019-03-01T20:01:32.715Z,8.43
2019-03-01T20:04:37.925Z,8.42
2019-03-01T20:07:43.182Z,8.41
2019-03-01T20:10:50.925Z,8.54
2019-03-01T20:13:55.281Z,8.58
2019-03-01T20:17:00.395Z,8.62
2019-03-01T20:20:08.115Z,8.29
2019-03-01T20:23:13.266Z,8.19
2019-03-01T20:26:18.749Z,8.38
2019-03-01T20:29:23.914Z,8.28
2019-03-01T20:32:29.122Z,8.21
2019-03-01T20:35:34.317Z,8.26
2019-03-01T20:38:39.920Z,8.22
2019-03-01T20:41:46.933Z,8.14
2019-03-01T20:44:53.090Z,8.05
2019-03-01T20:47:59.984Z,7.95
2019-03-01T20:51:06.214Z,8.03
2019-03-01T20:54:11.554Z,7.99
2019-03-01T20:57:16.759Z,7.88
2019-03-01T21:00:22.645Z,7.94
2019-03-01T21:03:29.894Z,7.77
2019-03-01T21:06:37.421Z,7.76
2019-03-01T21:09:42.070Z,7.78
2019-03-01T21:12:47.220Z,7.75
2019-03-01T21:15:53.237Z,7.75
2019-03-01T21:18:59.858Z,7.69
2019-03-01T21:22:05.571Z,7.60
2019-03-01T21:25:12.492Z,7.54
2019-03-01T21:28:17.702Z,7.58
2019-03-01T21:31:22.858Z,7.48
2019-03-01T21:34:28.141Z,7.42
2019-03-01T21:37:34.736Z,7.45
2019-03-01T21:40:40.172Z,7.47
2019-03-01T21:43:45.345Z,7.41
2019-03-01T21:46:50.493Z,7.53
2019-03-01T21:49:55.620Z,7.49
2019-03-01T21:53:01.723Z,7.43
2019-03-01T21:56:08.745Z,7.46
2019-03-01T21:59:17.202Z,7.44
2019-03-01T22:02:20.826Z,7.50
2019-03-01T22:05:26.104Z,7.52
2019-03-01T22:08:32.524Z,7.70
2019-03-01T22:11:37.662Z,7.85
2019-03-01T22:14:45.801Z,7.66
2019-03-01T22:17:50.815Z,7.47
2019-03-01T22:20:55.969Z,7.41
2019-03-01T22:24:01.099Z,7.27
2019-03-01T22:27:06.228Z,7.20
2019-03-01T22:30:14.092Z,7.07
2019-03-01T22:33:20.789Z,7.12
2019-03-01T22:36:26.120Z,7.03
2019-03-01T22:39:31.316Z,6.93
2019-03-01T22:42:36.501Z,6.91
2019-03-01T22:45:41.630Z,7.10
2019-03-01T22:48:49.686Z,7.01
2019-03-01T22:51:53.819Z,6.85
2019-03-01T22:55:01.639Z,6.82
2019-03-01T22:58:05.822Z,6.99
2019-03-01T23:01:29.495Z,6.82
2019-03-01T23:04:35.752Z,6.75
2019-03-01T23:07:40.954Z,6.69
2019-03-01T23:10:46.092Z,6.66
2019-03-01T23:13:52.800Z,6.69
2019-03-01T23:16:58.158Z,6.58
2019-03-01T23:20:03.290Z,6.61
2019-03-01T23:23:08.417Z,6.71
2019-03-01T23:26:13.553Z,6.64
2019-03-01T23:29:20.019Z,6.70
2019-03-01T23:32:26.317Z,6.71
2019-03-01T23:35:34.374Z,6.71
2019-03-01T23:38:39.532Z,6.82
2019-03-01T23:41:46.379Z,6.69
2019-03-01T23:44:51.701Z,6.71
2019-03-01T23:47:56.834Z,6.48
2019-03-01T23:51:02.037Z,6.51
2019-03-01T23:54:09.049Z,6.47
2019-03-01T23:57:14.050Z,6.44
